createdAt,value
2024-03-12T00:00:45.743Z,50.70
2024-03-12T00:03:13.860Z,50.70
2024-03-12T00:05:42.727Z,50.90
2024-03-12T00:08:10.764Z,50.90
2024-03-12T00:10:40.305Z,50.80
2024-03-12T00:13:08.991Z,51.00
2024-03-12T00:15:38.341Z,50.90
2024-03-12T00:18:07.290Z,50.90
2024-03-12T00:20:36.657Z,50.90
2024-03-12T00:23:08.482Z,51.00
2024-03-12T00:25:37.249Z,50.90
2024-03-12T00:30:46.472Z,51.00
2024-03-12T00:33:14.962Z,51.00
2024-03-12T00:35:45.139Z,50.90
2024-03-12T00:38:13.102Z,50.90
2024-03-12T00:40:44.361Z,50.90
2024-03-12T00:43:13.869Z,50.90
2024-03-12T00:45:43.629Z,51.10
2024-03-12T00:48:20.550Z,51.10
2024-03-12T00:50:50.447Z,51.10
2024-03-12T00:53:19.413Z,51.10
2024-03-12T00:55:50.863Z,51.10
2024-03-12T00:58:22.396Z,51.20
2024-03-12T01:00:51.290Z,51.20
2024-03-12T01:03:19.547Z,51.10
2024-03-12T01:05:48.113Z,51.10
2024-03-12T01:08:16.516Z,51.10
2024-03-12T01:10:44.650Z,51.10
2024-03-12T01:13:13.059Z,51.10
2024-03-12T01:15:41.888Z,51.00
2024-03-12T01:18:14.472Z,50.90
2024-03-12T01:20:42.558Z,50.90
2024-03-12T01:23:10.724Z,50.90
2024-03-12T01:25:39.004Z,50.90
2024-03-12T01:30:39.786Z,50.80
2024-03-12T01:33:08.314Z,51.00
2024-03-12T01:35:41.305Z,51.10
2024-03-12T01:40:53.528Z,51.20
2024-03-12T01:43:21.647Z,51.20
2024-03-12T01:45:49.721Z,51.30
2024-03-12T01:48:17.981Z,51.40
2024-03-12T01:50:46.306Z,51.50
2024-03-12T01:53:14.878Z,51.50
2024-03-12T01:55:45.467Z,51.50
2024-03-12T01:58:19.058Z,51.50
2024-03-12T02:00:47.926Z,51.50
2024-03-12T02:03:20.725Z,51.60
2024-03-12T02:05:49.052Z,51.70
2024-03-12T02:08:18.862Z,51.70
2024-03-12T02:10:47.640Z,51.80
2024-03-12T02:13:15.816Z,51.80
2024-03-12T02:15:43.953Z,51.80
2024-03-12T02:18:12.075Z,51.80
2024-03-12T02:20:40.129Z,51.80
2024-03-12T02:23:08.208Z,51.80
2024-03-12T02:25:36.109Z,51.90
2024-03-12T02:28:04.722Z,51.90
2024-03-12T02:30:33.141Z,51.90
2024-03-12T02:33:01.661Z,51.90
2024-03-12T02:35:29.964Z,51.90
2024-03-12T02:37:57.980Z,51.80
2024-03-12T02:40:26.042Z,51.80
2024-03-12T02:42:54.204Z,51.80
2024-03-12T02:45:23.156Z,51.80
2024-03-12T02:47:51.889Z,51.90
2024-03-12T02:50:20.139Z,51.80
2024-03-12T02:52:48.324Z,51.80
2024-03-12T02:55:16.657Z,51.80
2024-03-12T02:57:45.294Z,51.70
2024-03-12T03:00:15.810Z,51.70
2024-03-12T03:02:45.687Z,51.70
2024-03-12T03:05:15.037Z,51.80
2024-03-12T03:07:44.177Z,51.80
2024-03-12T03:10:14.442Z,51.70
2024-03-12T03:12:45.518Z,51.70
2024-03-12T03:15:14.688Z,51.70
2024-03-12T03:17:47.831Z,51.90
2024-03-12T03:20:16.946Z,52.00
2024-03-12T03:22:45.768Z,51.90
2024-03-12T03:25:14.768Z,51.80
2024-03-12T03:27:44.138Z,51.80
2024-03-12T03:30:20.459Z,51.80
2024-03-12T03:35:21.482Z,51.60
2024-03-12T03:37:49.692Z,51.50
2024-03-12T03:40:24.929Z,51.40
2024-03-12T03:42:55.090Z,51.40
2024-03-12T03:45:23.166Z,51.40
2024-03-12T03:47:52.243Z,51.30
2024-03-12T03:50:20.372Z,51.50
2024-03-12T03:52:49.744Z,51.60
2024-03-12T03:55:17.988Z,51.60
2024-03-12T04:00:25.168Z,51.70
2024-03-12T04:02:53.501Z,51.90
2024-03-12T04:05:21.696Z,51.70
2024-03-12T04:07:50.828Z,51.80
2024-03-12T04:10:19.605Z,51.90
2024-03-12T04:12:50.321Z,51.90
2024-03-12T04:15:18.678Z,52.00
2024-03-12T04:17:46.700Z,52.00
2024-03-12T04:20:18.781Z,52.10
2024-03-12T04:22:47.183Z,52.00
2024-03-12T04:27:50.199Z,52.20
2024-03-12T04:30:18.530Z,52.20
2024-03-12T04:32:49.013Z,52.40
2024-03-12T04:35:17.903Z,52.30
2024-03-12T04:37:46.379Z,52.40
2024-03-12T04:40:14.831Z,52.30
2024-03-12T04:45:17.637Z,52.40
2024-03-12T04:47:46.504Z,52.50
2024-03-12T04:50:17.075Z,52.40
2024-03-12T04:52:45.171Z,52.50
2024-03-12T04:55:15.292Z,52.40
2024-03-12T04:57:44.790Z,52.50
2024-03-12T05:02:49.597Z,52.40
2024-03-12T05:05:25.458Z,52.40
2024-03-12T05:07:54.567Z,52.20
2024-03-12T05:10:23.187Z,52.20
2024-03-12T05:12:53.513Z,52.20
2024-03-12T05:17:55.302Z,51.90
2024-03-12T05:20:35.142Z,52.00
2024-03-12T05:23:05.744Z,52.00
2024-03-12T05:25:41.612Z,51.90
2024-03-12T05:28:11.807Z,52.00
2024-03-12T05:30:42.938Z,52.10
2024-03-12T05:33:16.673Z,52.10
2024-03-12T05:35:53.285Z,52.10
2024-03-12T05:38:35.608Z,52.20
2024-03-12T05:41:10.318Z,52.10
2024-03-12T05:43:57.621Z,52.20
2024-03-12T05:46:49.078Z,52.20
2024-03-12T05:49:17.377Z,55.40
2024-03-12T05:51:45.905Z,56.90
2024-03-12T05:54:14.039Z,56.40
2024-03-12T05:56:42.161Z,56.40
2024-03-12T05:59:10.338Z,55.70
2024-03-12T06:01:38.740Z,56.10
2024-03-12T06:04:06.986Z,55.80
2024-03-12T06:06:35.263Z,55.80
2024-03-12T06:09:04.064Z,55.80
2024-03-12T06:11:33.354Z,55.80
2024-03-12T06:14:04.187Z,56.00
2024-03-12T06:16:32.873Z,55.70
2024-03-12T06:19:01.689Z,55.30
2024-03-12T06:21:30.818Z,55.00
2024-03-12T06:23:58.872Z,54.30
2024-03-12T06:26:28.147Z,54.30
2024-03-12T06:28:56.732Z,54.00
2024-03-12T06:31:25.915Z,54.10
2024-03-12T06:33:54.126Z,53.70
2024-03-12T06:36:22.498Z,53.60
2024-03-12T06:38:53.249Z,53.30
2024-03-12T06:41:21.430Z,52.90
2024-03-12T06:43:49.482Z,52.80
2024-03-12T06:46:21.617Z,53.00
2024-03-12T06:48:50.356Z,52.60
2024-03-12T06:51:18.666Z,52.20
2024-03-12T06:53:47.323Z,52.00
2024-03-12T06:56:18.179Z,52.20
2024-03-12T06:58:47.422Z,52.00
2024-03-12T07:01:15.949Z,51.90
2024-03-12T07:03:44.989Z,51.60
2024-03-12T07:06:13.327Z,51.50
2024-03-12T07:08:41.909Z,51.20
2024-03-12T07:13:42.209Z,50.50
2024-03-12T07:16:12.252Z,50.30
2024-03-12T07:18:40.684Z,49.90
2024-03-12T07:21:08.932Z,49.70
2024-03-12T07:23:39.043Z,49.40
2024-03-12T07:26:07.365Z,49.20
2024-03-12T07:28:35.735Z,49.10
2024-03-12T07:31:05.120Z,48.90
2024-03-12T07:33:33.660Z,48.60
2024-03-12T07:36:05.951Z,48.50
2024-03-12T07:38:34.587Z,48.70
2024-03-12T07:41:02.809Z,48.90
2024-03-12T07:43:31.857Z,49.10
2024-03-12T07:45:59.894Z,48.80
2024-03-12T07:48:28.177Z,48.90
2024-03-12T07:51:02.792Z,48.80
2024-03-12T07:53:31.674Z,48.90
2024-03-12T07:56:02.751Z,48.70
2024-03-12T07:58:31.163Z,48.70
2024-03-12T08:01:01.008Z,48.40
2024-03-12T08:03:29.872Z,48.40
2024-03-12T08:05:58.156Z,48.40
2024-03-12T08:08:26.178Z,48.20
2024-03-12T08:10:56.468Z,48.30
2024-03-12T08:13:24.762Z,48.40
2024-03-12T08:15:53.234Z,48.00
2024-03-12T08:18:22.169Z,48.20
2024-03-12T08:20:50.348Z,48.00
2024-03-12T08:23:21.561Z,47.90
2024-03-12T08:25:56.138Z,48.00
2024-03-12T08:28:29.993Z,47.70
2024-03-12T08:31:02.528Z,47.70
2024-03-12T08:33:36.487Z,47.60
2024-03-12T08:36:05.214Z,47.50
2024-03-12T08:38:33.493Z,47.50
2024-03-12T08:41:01.894Z,47.40
2024-03-12T08:43:30.247Z,47.00
2024-03-12T08:46:00.023Z,46.70
2024-03-12T08:48:28.422Z,46.90
2024-03-12T08:50:58.277Z,46.90
2024-03-12T08:53:26.716Z,46.80
2024-03-12T08:55:54.817Z,46.80
2024-03-12T08:58:23.578Z,46.70
2024-03-12T09:00:52.444Z,46.70
2024-03-12T09:03:21.577Z,46.70
2024-03-12T09:05:49.945Z,46.60
2024-03-12T09:08:19.469Z,46.70
2024-03-12T09:10:49.512Z,46.70
2024-03-12T09:13:18.472Z,46.60
2024-03-12T09:15:46.721Z,46.50
2024-03-12T09:18:16.820Z,46.40
2024-03-12T09:20:44.849Z,46.40
2024-03-12T09:23:12.852Z,46.50
2024-03-12T09:25:43.848Z,46.80
2024-03-12T09:28:12.925Z,46.60
2024-03-12T09:30:41.201Z,46.80
2024-03-12T09:33:09.303Z,46.40
2024-03-12T09:38:12.607Z,46.50
2024-03-12T09:40:44.351Z,46.60
2024-03-12T09:43:15.434Z,46.70
2024-03-12T09:45:43.886Z,46.60
2024-03-12T09:48:14.854Z,46.50
2024-03-12T09:50:46.453Z,46.40
2024-03-12T09:53:16.639Z,45.50
2024-03-12T09:55:46.793Z,46.40
2024-03-12T09:58:14.968Z,46.40
2024-03-12T10:03:21.903Z,46.70
2024-03-12T10:05:50.174Z,46.60
2024-03-12T10:08:19.574Z,46.60
2024-03-12T10:10:49.931Z,46.30
2024-03-12T10:13:19.535Z,46.00
2024-03-12T10:16:01.389Z,45.70
2024-03-12T10:18:36.670Z,44.50
2024-03-12T10:21:05.653Z,45.40
2024-03-12T10:23:38.763Z,45.50
2024-03-12T10:26:11.318Z,45.30
2024-03-12T10:28:42.061Z,45.10
2024-03-12T10:31:13.068Z,44.70
2024-03-12T10:33:50.941Z,44.60
2024-03-12T10:36:34.179Z,44.30
2024-03-12T10:39:08.861Z,43.90
2024-03-12T10:41:36.988Z,43.70
2024-03-12T10:44:12.761Z,43.90
2024-03-12T10:46:48.911Z,43.90
2024-03-12T10:49:19.635Z,43.80
2024-03-12T10:51:48.029Z,43.70
2024-03-12T10:54:18.633Z,43.70
2024-03-12T10:56:50.919Z,43.50
2024-03-12T10:59:21.926Z,43.20
2024-03-12T11:01:51.163Z,43.20
2024-03-12T11:04:19.998Z,42.90
2024-03-12T11:06:51.036Z,42.70
2024-03-12T11:11:54.258Z,42.80
2024-03-12T11:14:22.986Z,42.80
2024-03-12T11:16:51.421Z,42.70
2024-03-12T11:19:25.165Z,42.70
2024-03-12T11:24:44.769Z,42.50
2024-03-12T11:27:23.402Z,42.60
2024-03-12T11:30:10.899Z,42.60
2024-03-12T11:32:44.930Z,42.50
2024-03-12T11:35:19.199Z,42.80
2024-03-12T11:38:07.113Z,42.60
2024-03-12T11:40:49.120Z,42.50
2024-03-12T11:43:39.850Z,42.30
2024-03-12T11:46:10.393Z,41.80
2024-03-12T11:48:47.140Z,42.00
2024-03-12T11:51:15.877Z,42.20
2024-03-12T11:53:49.470Z,41.30
2024-03-12T12:01:38.194Z,42.10
2024-03-12T12:04:09.726Z,42.50
2024-03-12T12:06:38.399Z,42.40
2024-03-12T12:09:10.890Z,43.00
2024-03-12T12:14:15.121Z,43.00
2024-03-12T12:16:43.908Z,43.40
2024-03-12T12:19:18.937Z,43.30
2024-03-12T12:21:51.880Z,43.40
2024-03-12T12:24:20.061Z,42.60
2024-03-12T12:26:49.175Z,42.50
2024-03-12T12:29:18.566Z,42.90
2024-03-12T12:34:30.252Z,42.00
2024-03-12T12:37:00.062Z,42.50
2024-03-12T12:39:43.891Z,42.60
2024-03-12T12:42:20.360Z,42.20
2024-03-12T12:44:55.794Z,42.00
2024-03-12T12:47:24.832Z,43.00
2024-03-12T12:49:55.626Z,41.90
2024-03-12T12:52:25.333Z,41.40
2024-03-12T12:55:00.579Z,41.50
2024-03-12T12:57:36.727Z,41.20
2024-03-12T13:00:19.356Z,40.90
2024-03-12T13:05:29.755Z,41.00
2024-03-12T13:10:38.908Z,41.00
2024-03-12T13:13:06.992Z,41.50
2024-03-12T13:15:36.261Z,41.50
2024-03-12T13:18:06.539Z,41.10
2024-03-12T13:20:35.412Z,41.40
2024-03-12T13:23:04.569Z,42.30
2024-03-12T13:25:36.812Z,42.30
2024-03-12T13:28:05.593Z,41.70
2024-03-12T13:33:17.090Z,42.10
2024-03-12T13:35:46.246Z,41.50
2024-03-12T13:38:17.309Z,42.10
2024-03-12T13:40:46.837Z,41.60
2024-03-12T13:43:15.668Z,41.80
2024-03-12T13:45:44.339Z,41.20
2024-03-12T13:48:13.753Z,41.60
2024-03-12T13:50:43.636Z,42.00
2024-03-12T13:53:12.816Z,40.90
2024-03-12T13:55:41.584Z,41.00
2024-03-12T13:58:10.511Z,41.40
2024-03-12T14:00:39.708Z,41.70
2024-03-12T14:05:46.135Z,41.20
2024-03-12T14:08:18.621Z,41.70
2024-03-12T14:10:50.864Z,39.20
2024-03-12T14:13:21.423Z,39.10
2024-03-12T14:15:50.136Z,37.80
2024-03-12T14:18:23.071Z,40.30
2024-03-12T14:20:54.790Z,40.20
2024-03-12T14:23:23.594Z,40.50
2024-03-12T14:25:51.763Z,40.10
2024-03-12T14:30:51.933Z,39.20
2024-03-12T14:33:19.995Z,40.10
2024-03-12T14:35:49.124Z,38.40
2024-03-12T14:38:17.298Z,37.70
2024-03-12T14:40:45.444Z,37.90
2024-03-12T14:43:13.691Z,37.70
2024-03-12T14:45:43.202Z,36.90
2024-03-12T14:48:12.000Z,36.90
2024-03-12T14:50:40.575Z,37.00
2024-03-12T14:53:09.728Z,38.50
2024-03-12T14:58:10.001Z,40.10
2024-03-12T15:00:41.305Z,40.00
2024-03-12T15:03:09.923Z,39.20
2024-03-12T15:05:38.326Z,39.80
2024-03-12T15:10:39.164Z,40.20
2024-03-12T15:13:07.891Z,39.90
2024-03-12T15:15:37.234Z,40.00
2024-03-12T15:18:06.793Z,39.90
2024-03-12T15:20:35.298Z,39.60
2024-03-12T15:23:03.598Z,39.60
2024-03-12T15:25:33.383Z,39.40
2024-03-12T15:28:01.776Z,40.10
2024-03-12T15:33:05.339Z,39.80
2024-03-12T15:35:35.041Z,40.10
2024-03-12T15:38:06.889Z,40.30
2024-03-12T15:40:36.796Z,39.80
2024-03-12T15:43:07.462Z,39.70
2024-03-12T15:45:36.212Z,39.70
2024-03-12T15:48:09.670Z,39.90
2024-03-12T15:50:40.693Z,40.00
2024-03-12T15:53:09.705Z,40.10
2024-03-12T15:55:38.475Z,40.10
2024-03-12T16:00:41.146Z,40.30
2024-03-12T16:03:12.593Z,40.20
2024-03-12T16:05:43.334Z,40.10
2024-03-12T16:08:11.661Z,40.40
2024-03-12T16:13:12.166Z,40.50
2024-03-12T16:15:43.660Z,40.50
2024-03-12T16:18:12.863Z,40.70
2024-03-12T16:20:41.072Z,40.80
2024-03-12T16:23:09.053Z,40.80
2024-03-12T16:25:37.303Z,40.90
2024-03-12T16:28:07.012Z,41.10
2024-03-12T16:30:35.146Z,41.10
2024-03-12T16:33:03.445Z,41.30
2024-03-12T16:35:31.541Z,41.20
2024-03-12T16:37:59.680Z,41.40
2024-03-12T16:40:30.452Z,41.50
2024-03-12T16:42:58.805Z,41.60
2024-03-12T16:45:26.953Z,41.60
2024-03-12T16:47:55.137Z,41.70
2024-03-12T16:50:23.604Z,41.80
2024-03-12T16:52:51.716Z,41.90
2024-03-12T16:55:20.725Z,41.90
2024-03-12T16:57:49.651Z,42.20
2024-03-12T17:00:19.001Z,42.20
2024-03-12T17:02:47.626Z,42.40
2024-03-12T17:05:24.181Z,42.40
2024-03-12T17:07:55.403Z,42.60
2024-03-12T17:10:24.317Z,42.60
2024-03-12T17:12:53.961Z,42.60
2024-03-12T17:15:23.825Z,42.70
2024-03-12T17:17:52.372Z,42.50
2024-03-12T17:20:20.708Z,42.50
2024-03-12T17:22:49.660Z,42.60
2024-03-12T17:25:21.177Z,42.70
2024-03-12T17:27:51.274Z,42.50
2024-03-12T17:30:20.819Z,42.50
2024-03-12T17:32:49.865Z,42.60
2024-03-12T17:35:19.474Z,42.80
2024-03-12T17:37:54.742Z,42.90
2024-03-12T17:40:24.357Z,43.00
2024-03-12T17:42:53.339Z,43.00
2024-03-12T17:45:22.832Z,43.00
2024-03-12T17:47:54.285Z,43.20
2024-03-12T17:53:09.472Z,43.30
2024-03-12T17:55:38.373Z,43.20
2024-03-12T17:58:08.062Z,43.20
2024-03-12T18:00:37.551Z,43.30
2024-03-12T18:05:39.516Z,43.30
2024-03-12T18:08:20.517Z,43.30
2024-03-12T18:10:50.153Z,43.30
2024-03-12T18:13:18.844Z,43.20
2024-03-12T18:15:47.766Z,43.30
2024-03-12T18:20:48.236Z,43.40
2024-03-12T18:25:58.513Z,43.40
2024-03-12T18:28:27.346Z,43.50
2024-03-12T18:30:55.761Z,43.50
2024-03-12T18:33:24.454Z,43.60
2024-03-12T18:38:26.885Z,43.70
2024-03-12T18:40:55.396Z,43.80
2024-03-12T18:43:24.444Z,43.90
2024-03-12T18:45:52.911Z,43.90
2024-03-12T18:48:22.140Z,43.90
2024-03-12T18:53:24.055Z,44.00
2024-03-12T18:55:54.176Z,44.00
2024-03-12T19:03:52.195Z,44.10
2024-03-12T19:06:26.319Z,44.20
2024-03-12T19:11:39.615Z,44.20
2024-03-12T19:16:55.168Z,44.20
2024-03-12T19:19:30.887Z,44.20
2024-03-12T19:22:00.421Z,44.30
2024-03-12T19:29:43.949Z,44.30
2024-03-12T19:34:50.023Z,44.50
2024-03-12T19:37:25.133Z,44.50
2024-03-12T19:42:33.871Z,44.50
2024-03-12T19:45:04.171Z,44.50
2024-03-12T19:47:33.596Z,44.50
2024-03-12T19:50:04.197Z,44.60
2024-03-12T19:52:34.207Z,44.60
2024-03-12T19:55:03.066Z,44.70
2024-03-12T19:57:33.604Z,44.80
2024-03-12T20:00:14.180Z,44.90
2024-03-12T20:02:44.578Z,44.90
2024-03-12T20:07:45.607Z,45.00
2024-03-12T20:10:15.507Z,45.00
2024-03-12T20:12:47.575Z,45.10
2024-03-12T20:15:15.920Z,45.10
2024-03-12T20:17:45.649Z,45.10
2024-03-12T20:22:55.255Z,45.10
2024-03-12T20:28:11.641Z,45.30
2024-03-12T20:30:41.144Z,45.30
2024-03-12T20:33:10.420Z,45.30
2024-03-12T20:35:44.887Z,45.30
2024-03-12T20:38:16.698Z,45.40
2024-03-12T20:43:26.687Z,45.50
2024-03-12T20:45:55.773Z,45.50
2024-03-12T20:53:41.181Z,48.50
2024-03-12T20:56:09.658Z,49.00
2024-03-12T20:58:38.006Z,49.10
2024-03-12T21:01:08.430Z,49.10
2024-03-12T21:03:39.392Z,49.10
2024-03-12T21:06:10.204Z,49.10
2024-03-12T21:08:38.887Z,48.90
2024-03-12T21:11:06.945Z,49.10
2024-03-12T21:13:36.620Z,48.80
2024-03-12T21:16:05.011Z,49.10
2024-03-12T21:18:33.201Z,49.10
2024-03-12T21:21:02.582Z,49.20
2024-03-12T21:23:30.653Z,49.00
2024-03-12T21:25:58.764Z,49.10
2024-03-12T21:28:26.955Z,49.10
2024-03-12T21:30:55.384Z,49.10
2024-03-12T21:33:23.479Z,49.00
2024-03-12T21:35:51.518Z,49.90
2024-03-12T21:38:19.702Z,49.80
2024-03-12T21:40:47.909Z,49.30
2024-03-12T21:43:16.172Z,49.40
2024-03-12T21:45:44.211Z,49.30
2024-03-12T21:48:14.095Z,49.40
2024-03-12T21:50:42.148Z,49.00
2024-03-12T21:53:10.198Z,49.40
2024-03-12T21:55:39.723Z,49.10
2024-03-12T21:58:09.493Z,48.70
2024-03-12T22:00:37.971Z,48.40
2024-03-12T22:03:06.253Z,48.30
2024-03-12T22:05:34.956Z,48.20
2024-03-12T22:08:02.996Z,48.00
2024-03-12T22:10:31.143Z,47.90
2024-03-12T22:12:59.805Z,47.80
2024-03-12T22:15:28.179Z,47.70
2024-03-12T22:17:58.061Z,47.50
2024-03-12T22:20:26.350Z,47.60
2024-03-12T22:22:55.743Z,47.50
2024-03-12T22:25:24.447Z,47.50
2024-03-12T22:27:52.683Z,47.50
2024-03-12T22:30:22.037Z,47.50
2024-03-12T22:32:50.397Z,47.50
2024-03-12T22:35:18.567Z,47.40
2024-03-12T22:37:49.658Z,47.30
2024-03-12T22:40:20.449Z,47.40
2024-03-12T22:42:49.670Z,47.50
2024-03-12T22:45:18.583Z,47.50
2024-03-12T22:47:47.832Z,47.50
2024-03-12T22:50:16.401Z,47.40
2024-03-12T22:52:49.030Z,47.50
2024-03-12T22:55:18.014Z,47.40
2024-03-12T22:57:46.889Z,47.40
2024-03-12T23:00:32.127Z,47.40
2024-03-12T23:03:04.736Z,47.40
2024-03-12T23:05:37.929Z,47.40
2024-03-12T23:08:10.309Z,47.50
2024-03-12T23:10:45.835Z,47.50
2024-03-12T23:13:18.857Z,47.50
2024-03-12T23:18:22.427Z,47.50
2024-03-12T23:20:51.403Z,47.40
2024-03-12T23:23:19.359Z,47.50
2024-03-12T23:25:47.393Z,47.50
2024-03-12T23:28:15.645Z,47.50
2024-03-12T23:30:46.637Z,47.50
2024-03-12T23:33:15.609Z,47.70
2024-03-12T23:35:43.938Z,47.70
2024-03-12T23:38:13.233Z,47.70
2024-03-12T23:40:44.327Z,47.70
2024-03-12T23:43:12.670Z,47.70
2024-03-12T23:45:41.446Z,47.80
2024-03-12T23:48:09.597Z,47.70
2024-03-12T23:50:37.825Z,47.80
2024-03-12T23:53:07.344Z,47.80
2024-03-12T23:55:36.275Z,47.80
2024-03-12T23:58:05.985Z,47.90
